Time;durP1;ratioP1;P1;durP2;ratioP2;P2;SDS_P1;SDS_P2;PMS_P1;PMS_P2;Temp;Humidity;BMP_temperature;BMP_pressure;BME280_temperature;BME280_humidity;BME280_pressure;Samples;Min_cycle;Max_cycle;Signal;HPM_P1;HPM_P2
2024/01/21 00:01:15;;;;;;;14.88;5.38;;;1.20;93.90;;;;;;5002507;28;20072;-67
2024/01/21 00:03:41;;;;;;;13.77;5.55;;;1.20;93.90;;;;;;5006888;28;20496;-67
2024/01/21 00:06:10;;;;;;;13.18;5.18;;;1.20;93.90;;;;;;4993092;28;20034;-67
2024/01/21 00:08:37;;;;;;;13.07;4.80;;;1.10;93.70;;;;;;4998659;28;20026;-67
2024/01/21 00:11:03;;;;;;;;;;;1.10;93.80;;;;;;4998420;28;20050;-68
2024/01/21 00:13:29;;;;;;;15.70;5.93;;;1.20;93.90;;;;;;4999713;28;19921;-68
2024/01/21 00:15:54;;;;;;;13.25;5.18;;;1.10;93.70;;;;;;5000133;28;20528;-67
2024/01/21 00:18:20;;;;;;;12.27;4.88;;;1.10;93.50;;;;;;5000147;28;20062;-67
2024/01/21 00:20:45;;;;;;;13.85;5.38;;;1.10;93.70;;;;;;4997202;28;20022;-67
2024/01/21 00:23:13;;;;;;;11.23;4.80;;;1.20;93.70;;;;;;4997934;28;20109;-67
2024/01/21 00:25:41;;;;;;;11.70;4.80;;;1.20;93.60;;;;;;5002318;28;20711;-68
2024/01/21 00:28:07;;;;;;;9.80;4.72;;;1.20;93.70;;;;;;4996157;28;20045;-67
2024/01/21 00:30:37;;;;;;;9.18;4.50;;;1.20;93.70;;;;;;5005909;28;20029;-67
2024/01/21 00:33:03;;;;;;;10.93;4.78;;;1.20;93.60;;;;;;5003907;28;20033;-67
2024/01/21 00:35:33;;;;;;;12.27;5.22;;;1.20;93.60;;;;;;5001045;28;20046;-67
2024/01/21 00:37:58;;;;;;;10.15;4.90;;;1.20;93.50;;;;;;4999468;28;20034;-67
2024/01/21 00:40:24;;;;;;;10.02;4.85;;;1.20;93.40;;;;;;5004486;28;20060;-67
2024/01/21 00:42:50;;;;;;;10.20;4.72;;;1.20;93.40;;;;;;5005213;28;20081;-67
2024/01/21 00:45:15;;;;;;;13.75;4.72;;;1.20;93.30;;;;;;5009036;23;20095;-67
2024/01/21 00:47:41;;;;;;;15.38;5.07;;;1.20;93.20;;;;;;5021701;28;20097;-67
2024/01/21 00:50:07;;;;;;;10.45;4.45;;;1.20;93.30;;;;;;5024146;28;20026;-67
2024/01/21 00:52:33;;;;;;;9.57;4.22;;;1.20;93.30;;;;;;5025476;28;20188;-67
2024/01/21 00:55:03;;;;;;;12.13;4.95;;;1.10;93.30;;;;;;5024391;28;20053;-67
2024/01/21 00:57:29;;;;;;;10.23;4.65;;;1.10;93.40;;;;;;5023849;28;20202;-67
2024/01/21 00:59:54;;;;;;;13.18;4.68;;;1.10;93.40;;;;;;5018465;28;20506;-67
2024/01/21 01:02:22;;;;;;;14.63;4.97;;;1.10;93.40;;;;;;5007635;28;20092;-67
2024/01/21 01:04:53;;;;;;;;;;;1.10;93.40;;;;;;5018432;28;20033;-67
2024/01/21 01:07:18;;;;;;;9.95;4.68;;;1.10;93.50;;;;;;5023973;28;19921;-67
2024/01/21 01:09:46;;;;;;;11.27;4.32;;;1.10;93.50;;;;;;5024846;28;20036;-68
2024/01/21 01:12:14;;;;;;;14.80;4.93;;;1.10;93.50;;;;;;5020908;28;20030;-67
2024/01/21 01:14:42;;;;;;;9.25;4.65;;;1.10;93.30;;;;;;5019478;28;20238;-67
2024/01/21 01:17:12;;;;;;;9.95;4.35;;;1.10;93.40;;;;;;5011266;28;20050;-67
2024/01/21 01:19:38;;;;;;;11.13;4.82;;;1.10;93.30;;;;;;5017505;28;20033;-67
2024/01/21 01:22:06;;;;;;;11.35;4.43;;;1.10;93.20;;;;;;5024661;28;20060;-67
2024/01/21 01:24:34;;;;;;;9.40;3.92;;;1.10;93.10;;;;;;5021876;28;20115;-67
2024/01/21 01:26:59;;;;;;;10.35;3.90;;;1.10;93.10;;;;;;5026071;28;20026;-67
2024/01/21 01:29:25;;;;;;;8.20;4.25;;;1.10;93.10;;;;;;5023741;28;20060;-67
2024/01/21 01:31:50;;;;;;;10.18;3.58;;;1.10;93.10;;;;;;5030294;28;20034;-67
2024/01/21 01:34:21;;;;;;;11.45;3.83;;;1.10;93.00;;;;;;5024368;28;20033;-67
2024/01/21 01:36:46;;;;;;;9.60;4.05;;;1.10;92.90;;;;;;5024581;28;20654;-67
2024/01/21 01:39:12;;;;;;;9.88;3.88;;;1.10;92.80;;;;;;5017357;28;20025;-68
2024/01/21 01:41:37;;;;;;;10.02;4.25;;;1.10;92.80;;;;;;5009095;28;20030;-67
2024/01/21 01:44:03;;;;;;;11.30;3.50;;;1.10;92.60;;;;;;5022037;28;20060;-67
2024/01/21 01:46:32;;;;;;;7.18;3.17;;;1.10;92.50;;;;;;5012953;28;20033;-67
2024/01/21 01:48:58;;;;;;;8.38;3.63;;;1.10;92.50;;;;;;5010626;28;20045;-67
2024/01/21 01:51:23;;;;;;;6.13;3.20;;;1.20;92.30;;;;;;5025273;28;20434;-67
2024/01/21 01:53:51;;;;;;;8.43;3.53;;;1.20;92.00;;;;;;5023728;28;20032;-67
2024/01/21 01:56:17;;;;;;;5.72;3.28;;;1.20;92.10;;;;;;5026267;28;20090;-67
2024/01/21 01:58:47;;;;;;;8.25;3.60;;;1.20;91.90;;;;;;5030340;28;20116;-67
2024/01/21 02:01:13;;;;;;;7.38;3.38;;;1.20;91.90;;;;;;5009558;28;20030;-67
2024/01/21 02:03:38;;;;;;;6.47;3.15;;;1.20;91.90;;;;;;5009286;28;20048;-67
2024/01/21 02:06:07;;;;;;;15.98;3.92;;;1.20;91.80;;;;;;5024797;28;20045;-67
2024/01/21 02:08:32;;;;;;;11.10;3.67;;;1.30;91.70;;;;;;5024853;28;20040;-67
2024/01/21 02:10:58;;;;;;;10.43;3.58;;;1.30;91.60;;;;;;5026473;28;20161;-67
2024/01/21 02:13:24;;;;;;;6.07;2.97;;;1.30;91.30;;;;;;5023257;28;20052;-68
2024/01/21 02:15:49;;;;;;;4.57;2.55;;;1.30;91.30;;;;;;5024194;28;20038;-67
2024/01/21 02:18:17;;;;;;;8.05;2.92;;;1.40;91.10;;;;;;5024643;28;20048;-67
2024/01/21 02:20:42;;;;;;;;;;;1.40;91.30;;;;;;5023567;28;20104;-67
2024/01/21 02:23:10;;;;;;;7.15;3.05;;;1.40;91.50;;;;;;5022879;28;19971;-67
2024/01/21 02:25:38;;;;;;;6.88;2.58;;;1.40;91.10;;;;;;5012443;28;20046;-67
2024/01/21 02:28:04;;;;;;;6.55;3.17;;;1.30;90.90;;;;;;5007961;28;20042;-67
2024/01/21 02:30:29;;;;;;;6.70;2.67;;;1.40;90.90;;;;;;5021199;28;20126;-67
2024/01/21 02:32:55;;;;;;;6.80;2.50;;;1.30;90.90;;;;;;5004173;28;20791;-68
2024/01/21 02:35:22;;;;;;;5.50;2.42;;;1.40;90.90;;;;;;5024290;28;20043;-67
2024/01/21 02:37:52;;;;;;;10.15;2.63;;;1.40;90.80;;;;;;5022681;28;20034;-68
2024/01/21 02:40:20;;;;;;;5.75;2.75;;;1.40;90.70;;;;;;5013801;28;20036;-67
2024/01/21 02:42:48;;;;;;;7.05;3.05;;;1.40;90.50;;;;;;5007180;28;20083;-67
2024/01/21 02:45:16;;;;;;;6.10;2.55;;;1.30;90.60;;;;;;5021126;28;20040;-67
2024/01/21 02:47:41;;;;;;;;;;;1.30;90.60;;;;;;5004435;28;20033;-67
2024/01/21 02:50:07;;;;;;;6.03;2.80;;;1.30;90.50;;;;;;5018715;28;20004;-67
2024/01/21 02:52:33;;;;;;;8.60;2.85;;;1.30;90.40;;;;;;5023921;28;20412;-67
2024/01/21 02:54:58;;;;;;;6.57;2.80;;;1.40;90.50;;;;;;5025827;28;20041;-67
2024/01/21 02:57:26;;;;;;;5.18;2.60;;;1.40;90.40;;;;;;5015699;28;20085;-67
2024/01/21 02:59:51;;;;;;;11.05;3.35;;;1.40;90.30;;;;;;5027337;28;20539;-67
2024/01/21 03:02:19;;;;;;;5.72;2.90;;;1.40;90.30;;;;;;5028135;28;20049;-67
2024/01/21 03:04:45;;;;;;;6.18;3.13;;;1.50;90.50;;;;;;5028325;28;20026;-67
2024/01/21 03:07:13;;;;;;;6.15;2.70;;;1.50;90.20;;;;;;5026916;28;20036;-67
2024/01/21 03:09:41;;;;;;;;;;;1.40;90.20;;;;;;5023783;28;20026;-67
2024/01/21 03:12:11;;;;;;;7.80;2.65;;;1.50;90.30;;;;;;5009305;28;19999;-67
2024/01/21 03:14:39;;;;;;;4.35;2.30;;;1.50;90.40;;;;;;5006723;28;20053;-67
2024/01/21 03:17:04;;;;;;;;;;;1.50;90.20;;;;;;5019970;28;20042;-67
2024/01/21 03:19:30;;;;;;;4.78;2.50;;;1.50;89.90;;;;;;5025860;28;20382;-68
2024/01/21 03:21:55;;;;;;;7.60;2.90;;;1.50;90.00;;;;;;5027262;28;20123;-68
2024/01/21 03:24:21;;;;;;;10.02;2.83;;;1.50;90.00;;;;;;5028025;28;20025;-67
2024/01/21 03:26:49;;;;;;;6.07;2.42;;;1.50;90.10;;;;;;5028753;28;20227;-67
2024/01/21 03:29:14;;;;;;;5.47;2.67;;;1.50;90.10;;;;;;5021640;28;20121;-68
2024/01/21 03:31:42;;;;;;;4.63;2.42;;;1.50;89.60;;;;;;5026015;28;20049;-67
2024/01/21 03:34:08;;;;;;;4.90;2.55;;;1.50;90.00;;;;;;5029733;28;20042;-67
2024/01/21 03:36:34;;;;;;;7.38;2.80;;;1.50;90.10;;;;;;5027807;28;20038;-67
2024/01/21 03:38:59;;;;;;;6.30;2.97;;;1.50;89.90;;;;;;5025302;28;20089;-67
2024/01/21 03:41:25;;;;;;;7.53;2.75;;;1.50;90.00;;;;;;5008407;28;20806;-67
2024/01/21 03:43:50;;;;;;;6.25;2.78;;;1.50;90.00;;;;;;5022461;28;20121;-67
2024/01/21 03:46:17;;;;;;;5.40;2.78;;;1.50;90.10;;;;;;5027488;28;20073;-67
2024/01/21 03:48:42;;;;;;;5.28;2.53;;;1.50;90.00;;;;;;5021021;28;20572;-67
2024/01/21 03:51:13;;;;;;;7.65;3.33;;;1.50;89.80;;;;;;5006076;28;20125;-67
2024/01/21 03:53:40;;;;;;;12.65;2.90;;;1.60;89.80;;;;;;5027341;28;20033;-67
2024/01/21 03:56:08;;;;;;;6.60;2.58;;;1.60;89.60;;;;;;5009249;28;20050;-68
2024/01/21 03:58:34;;;;;;;9.60;2.50;;;1.60;89.30;;;;;;5018644;28;20450;-67
2024/01/21 04:01:05;;;;;;;6.15;2.70;;;1.60;89.10;;;;;;5025108;28;20029;-67
2024/01/21 04:03:35;;;;;;;5.85;2.67;;;1.60;89.40;;;;;;5025351;28;20038;-67
2024/01/21 04:06:00;;;;;;;5.38;2.58;;;1.60;88.90;;;;;;5024409;28;20030;-67
2024/01/21 04:08:28;;;;;;;5.13;2.65;;;1.60;89.10;;;;;;5005786;28;20042;-68
2024/01/21 04:10:54;;;;;;;9.88;3.67;;;1.60;89.10;;;;;;5021767;28;20029;-68
2024/01/21 04:13:22;;;;;;;5.57;2.72;;;1.60;89.40;;;;;;5026038;28;20100;-67
2024/01/21 04:15:47;;;;;;;5.18;2.58;;;1.60;88.60;;;;;;5025393;28;20038;-67
2024/01/21 04:18:13;;;;;;;6.38;2.55;;;1.60;88.10;;;;;;5025947;28;20291;-67
2024/01/21 04:20:39;;;;;;;5.95;2.50;;;1.60;88.60;;;;;;5031979;28;20467;-67
2024/01/21 04:23:04;;;;;;;5.20;2.67;;;1.70;88.40;;;;;;5027570;28;20038;-67
2024/01/21 04:25:30;;;;;;;8.07;2.65;;;1.70;88.00;;;;;;5026284;28;23181;-67
2024/01/21 04:27:56;;;;;;;6.32;3.10;;;1.70;87.90;;;;;;5023822;28;20045;-67
2024/01/21 04:30:21;;;;;;;8.65;3.17;;;1.70;87.30;;;;;;5023117;28;20092;-67
2024/01/21 04:32:47;;;;;;;6.50;2.75;;;1.70;86.80;;;;;;5028151;28;20045;-67
2024/01/21 04:35:13;;;;;;;4.75;2.33;;;1.70;86.60;;;;;;5026681;28;20124;-67
2024/01/21 04:37:39;;;;;;;6.25;3.13;;;1.70;86.80;;;;;;5025603;28;20116;-67
2024/01/21 04:40:05;;;;;;;5.38;2.50;;;1.80;86.40;;;;;;5024041;28;20047;-67
2024/01/21 04:42:33;;;;;;;5.68;2.85;;;1.70;86.60;;;;;;5024435;28;20483;-67
2024/01/21 04:44:58;;;;;;;5.43;2.90;;;1.80;86.30;;;;;;5027992;28;20137;-67
2024/01/21 04:47:24;;;;;;;9.77;2.85;;;1.80;85.80;;;;;;5026322;28;20236;-67
2024/01/21 04:49:52;;;;;;;5.65;3.10;;;1.80;85.60;;;;;;5027683;28;20029;-67
2024/01/21 04:52:17;;;;;;;4.93;2.78;;;1.80;85.10;;;;;;5025994;28;20034;-68
2024/01/21 04:54:43;;;;;;;5.72;2.65;;;1.80;85.50;;;;;;5024866;28;20104;-67
2024/01/21 04:57:08;;;;;;;7.07;3.05;;;1.80;84.90;;;;;;5025268;28;20083;-67
2024/01/21 04:59:34;;;;;;;4.57;2.72;;;1.80;84.50;;;;;;5023391;28;20072;-67
2024/01/21 05:02:02;;;;;;;7.68;3.38;;;1.80;84.00;;;;;;5031478;28;20133;-67
2024/01/21 05:04:28;;;;;;;7.82;3.30;;;1.90;84.00;;;;;;5026897;28;20034;-67
2024/01/21 05:06:53;;;;;;;6.38;3.25;;;1.90;83.80;;;;;;5024672;28;20377;-67
2024/01/21 05:09:21;;;;;;;10.02;3.40;;;1.90;83.70;;;;;;5022971;28;20013;-67
2024/01/21 05:11:47;;;;;;;7.70;3.13;;;1.90;83.30;;;;;;5030350;28;20033;-67
2024/01/21 05:14:13;;;;;;;7.68;2.80;;;2.00;83.30;;;;;;5025019;28;20064;-67
2024/01/21 05:16:41;;;;;;;7.47;3.10;;;1.90;83.30;;;;;;5032312;28;20092;-67
2024/01/21 05:19:09;;;;;;;7.93;3.30;;;1.90;82.90;;;;;;5023989;28;20041;-67
2024/01/21 05:21:35;;;;;;;5.32;2.63;;;2.00;83.20;;;;;;5021118;28;20091;-67
2024/01/21 05:24:03;;;;;;;9.85;2.63;;;2.00;82.50;;;;;;5024697;28;20687;-67
2024/01/21 05:26:33;;;;;;;7.20;3.10;;;2.00;82.40;;;;;;5025304;28;20034;-67
2024/01/21 05:29:01;;;;;;;4.40;2.55;;;2.10;82.80;;;;;;5004352;28;20042;-67
2024/01/21 05:31:32;;;;;;;4.90;3.03;;;2.10;82.30;;;;;;5016800;28;20504;-67
2024/01/21 05:34:00;;;;;;;7.20;3.58;;;2.10;82.00;;;;;;5027731;28;20033;-67
2024/01/21 05:36:27;;;;;;;6.20;3.38;;;2.10;82.10;;;;;;5024372;28;20052;-67
2024/01/21 05:38:55;;;;;;;7.03;3.17;;;2.10;82.00;;;;;;5026027;28;20057;-67
2024/01/21 05:41:23;;;;;;;;;;;2.10;82.20;;;;;;5025877;28;20547;-67
2024/01/21 05:43:49;;;;;;;11.45;3.22;;;2.10;82.20;;;;;;5026731;28;20533;-68
2024/01/21 05:46:14;;;;;;;7.00;3.60;;;2.10;82.60;;;;;;5025225;28;20112;-67
2024/01/21 05:48:44;;;;;;;9.23;3.60;;;2.10;81.90;;;;;;5025243;28;20538;-67
2024/01/21 05:51:12;;;;;;;8.23;3.53;;;2.10;82.30;;;;;;5026322;28;20025;-67
2024/01/21 05:53:43;;;;;;;6.28;3.45;;;2.10;81.70;;;;;;5025705;28;20056;-67
2024/01/21 05:56:11;;;;;;;6.55;3.42;;;2.10;82.30;;;;;;5024868;28;20132;-68
2024/01/21 05:58:36;;;;;;;6.15;3.30;;;2.10;82.40;;;;;;5023797;28;20069;-67
2024/01/21 06:01:02;;;;;;;11.43;3.92;;;2.10;82.20;;;;;;5016785;28;20468;-67
2024/01/21 06:03:27;;;;;;;10.65;4.03;;;2.20;82.30;;;;;;5003351;28;20053;-67
2024/01/21 06:05:53;;;;;;;8.02;2.90;;;2.20;82.40;;;;;;5025697;28;20026;-67
2024/01/21 06:08:18;;;;;;;8.73;3.45;;;2.20;82.20;;;;;;5026196;28;20029;-68
2024/01/21 06:10:44;;;;;;;7.95;3.17;;;2.20;82.20;;;;;;5026310;28;20038;-67
2024/01/21 06:13:14;;;;;;;8.00;3.72;;;2.20;82.20;;;;;;5025114;28;20063;-67
2024/01/21 06:15:42;;;;;;;7.85;3.55;;;2.30;82.30;;;;;;5024792;28;20133;-67
2024/01/21 06:18:10;;;;;;;6.07;2.88;;;2.20;82.20;;;;;;5024531;28;20045;-67
2024/01/21 06:20:38;;;;;;;10.52;2.92;;;2.30;82.30;;;;;;5009153;28;20041;-67
2024/01/21 06:23:03;;;;;;;8.23;3.22;;;2.30;82.20;;;;;;5021674;28;20037;-67
2024/01/21 06:25:31;;;;;;;7.22;3.30;;;2.30;82.30;;;;;;5028873;28;20077;-68
2024/01/21 06:27:57;;;;;;;7.57;2.80;;;2.30;82.00;;;;;;5022667;28;20415;-68
2024/01/21 06:30:25;;;;;;;6.13;3.17;;;2.30;81.70;;;;;;5022785;28;20063;-68
2024/01/21 06:32:50;;;;;;;;;;;2.30;81.80;;;;;;5006785;28;20548;-67
2024/01/21 06:35:16;;;;;;;8.60;3.42;;;2.40;82.00;;;;;;5027712;28;20097;-67
2024/01/21 06:37:43;;;;;;;4.80;2.85;;;2.30;82.10;;;;;;5029366;28;20034;-67
2024/01/21 06:40:11;;;;;;;5.72;3.20;;;2.30;82.40;;;;;;5028936;28;20117;-67
2024/01/21 06:42:39;;;;;;;5.90;2.88;;;2.40;81.60;;;;;;5027870;28;20082;-68
2024/01/21 06:45:10;;;;;;;7.50;2.90;;;2.40;82.00;;;;;;5026315;28;20544;-68
2024/01/21 06:47:37;;;;;;;6.45;2.78;;;2.40;81.60;;;;;;5051797;23;20052;-67
2024/01/21 06:50:03;;;;;;;6.87;3.17;;;2.40;81.50;;;;;;5049561;28;20060;-68
2024/01/21 06:52:31;;;;;;;7.57;3.40;;;2.40;80.40;;;;;;5048693;28;20026;-68
2024/01/21 06:54:59;;;;;;;5.90;3.03;;;2.40;80.20;;;;;;5045776;28;20041;-67
2024/01/21 06:57:24;;;;;;;6.45;3.08;;;2.50;79.30;;;;;;5048419;28;20040;-68
2024/01/21 06:59:51;;;;;;;8.95;2.97;;;2.50;79.60;;;;;;5049394;28;20029;-67
2024/01/21 07:02:17;;;;;;;7.50;3.42;;;2.50;79.20;;;;;;5048472;28;20390;-67
2024/01/21 07:04:42;;;;;;;10.05;3.63;;;2.50;78.80;;;;;;5049083;28;20040;-68
2024/01/21 07:07:10;;;;;;;6.38;3.05;;;2.60;79.20;;;;;;5047394;28;20396;-67
2024/01/21 07:09:40;;;;;;;4.65;3.00;;;2.60;78.30;;;;;;5047908;28;20057;-68
2024/01/21 07:12:06;;;;;;;6.57;3.13;;;2.60;78.00;;;;;;5045931;28;20505;-67
2024/01/21 07:14:34;;;;;;;7.70;3.13;;;2.70;77.70;;;;;;5047710;28;20033;-68
2024/01/21 07:17:03;;;;;;;7.13;3.30;;;2.70;77.80;;;;;;5048317;28;20050;-67
2024/01/21 07:19:31;;;;;;;9.25;3.95;;;2.70;77.20;;;;;;5045194;28;20470;-68
2024/01/21 07:21:59;;;;;;;24.40;3.63;;;2.70;77.30;;;;;;5049234;28;20128;-67
2024/01/21 07:24:25;;;;;;;6.50;3.40;;;2.70;77.10;;;;;;5049249;28;20087;-67
2024/01/21 07:26:51;;;;;;;12.38;4.10;;;2.70;77.30;;;;;;5049171;28;20422;-68
2024/01/21 07:29:18;;;;;;;6.70;3.33;;;2.70;77.20;;;;;;5048320;28;20518;-67
2024/01/21 07:31:44;;;;;;;;;;;2.70;77.60;;;;;;5049066;28;20079;-67
2024/01/21 07:34:10;;;;;;;9.82;3.20;;;2.70;77.60;;;;;;5048330;28;20406;-67
2024/01/21 07:36:40;;;;;;;8.63;3.28;;;2.70;78.00;;;;;;5048177;28;20128;-67
2024/01/21 07:39:08;;;;;;;6.88;3.63;;;2.70;78.00;;;;;;5047250;28;20021;-67
2024/01/21 07:41:36;;;;;;;7.38;3.53;;;2.70;77.90;;;;;;5049198;28;20087;-68
2024/01/21 07:44:01;;;;;;;;;;;2.70;77.70;;;;;;5048145;28;20052;-67
2024/01/21 07:46:29;;;;;;;9.50;3.67;;;2.70;77.50;;;;;;5048582;28;20398;-67
2024/01/21 07:48:59;;;;;;;6.82;3.33;;;2.70;77.60;;;;;;5046756;28;21051;-67
2024/01/21 07:51:25;;;;;;;7.43;3.95;;;2.70;77.70;;;;;;5045749;28;20826;-67
2024/01/21 07:53:55;;;;;;;8.00;3.47;;;2.70;77.70;;;;;;5046505;28;20069;-68
2024/01/21 07:56:22;;;;;;;8.57;3.88;;;2.70;77.80;;;;;;5042139;28;20064;-68
2024/01/21 07:58:50;;;;;;;9.13;3.38;;;2.70;77.50;;;;;;5047656;28;20037;-67
2024/01/21 08:01:20;;;;;;;7.70;3.63;;;2.70;77.50;;;;;;5046104;28;20379;-67
2024/01/21 08:03:46;;;;;;;9.18;3.10;;;2.70;77.80;;;;;;5046323;28;20033;-68
2024/01/21 08:06:11;;;;;;;7.95;3.47;;;2.70;77.70;;;;;;5046522;28;20438;-67
2024/01/21 08:08:37;;;;;;;10.82;3.35;;;2.70;78.00;;;;;;5043252;28;20040;-67
2024/01/21 08:11:05;;;;;;;8.63;3.28;;;2.70;77.60;;;;;;5045906;28;20104;-67
2024/01/21 08:13:30;;;;;;;;;;;2.70;77.90;;;;;;5047222;28;20048;-68
2024/01/21 08:15:56;;;;;;;10.60;4.20;;;2.70;77.90;;;;;;5046241;28;19921;-67
2024/01/21 08:18:22;;;;;;;9.18;3.53;;;2.70;78.10;;;;;;5045988;28;20028;-68
2024/01/21 08:20:50;;;;;;;8.65;4.18;;;2.70;78.20;;;;;;5045417;28;20037;-67
2024/01/21 08:23:19;;;;;;;7.28;3.28;;;2.70;78.20;;;;;;5045894;28;20457;-67
2024/01/21 08:25:47;;;;;;;10.80;3.67;;;2.70;78.20;;;;;;5046702;28;20040;-67
2024/01/21 08:28:15;;;;;;;10.48;3.45;;;2.70;78.40;;;;;;5045953;28;20045;-67
2024/01/21 08:30:42;;;;;;;10.20;3.58;;;2.70;78.20;;;;;;5046529;28;20037;-67
2024/01/21 08:33:09;;;;;;;7.32;4.03;;;2.70;78.40;;;;;;5046645;28;20029;-68
2024/01/21 08:35:39;;;;;;;7.75;3.28;;;2.70;78.50;;;;;;5044549;28;20033;-68
2024/01/21 08:38:05;;;;;;;10.52;3.42;;;2.70;78.80;;;;;;5044161;28;20076;-67
2024/01/21 08:40:33;;;;;;;7.95;3.67;;;2.70;78.30;;;;;;5042111;28;20033;-67
2024/01/21 08:42:58;;;;;;;;;;;2.70;78.30;;;;;;5045405;28;20029;-67
2024/01/21 08:45:24;;;;;;;7.93;3.03;;;2.80;78.40;;;;;;5045738;28;20545;-68
2024/01/21 08:47:57;;;;;;;9.73;3.22;;;2.80;78.90;;;;;;5045869;28;20112;-68
2024/01/21 08:50:24;;;;;;;8.38;3.55;;;2.80;78.30;;;;;;5041297;28;20084;-67
2024/01/21 08:52:50;;;;;;;6.75;3.15;;;2.80;78.40;;;;;;5044488;28;20029;-68
2024/01/21 08:55:16;;;;;;;6.65;2.92;;;2.90;78.20;;;;;;5045601;28;20048;-68
2024/01/21 08:57:44;;;;;;;6.45;3.08;;;2.90;78.20;;;;;;5045825;28;23040;-68
2024/01/21 09:00:15;;;;;;;6.88;3.13;;;2.90;77.90;;;;;;5043702;28;20104;-68
2024/01/21 09:02:40;;;;;;;7.68;3.58;;;2.90;78.50;;;;;;5046317;28;20021;-68
2024/01/21 09:05:10;;;;;;;10.65;2.90;;;2.90;78.90;;;;;;5046366;28;20044;-68
2024/01/21 09:07:36;;;;;;;10.52;2.88;;;2.90;78.60;;;;;;5045145;28;20037;-68
2024/01/21 09:10:04;;;;;;;7.00;2.58;;;2.90;78.60;;;;;;5045695;28;20559;-68
2024/01/21 09:12:32;;;;;;;8.43;2.83;;;3.00;78.80;;;;;;5044655;28;20207;-68
2024/01/21 09:14:57;;;;;;;9.73;3.58;;;3.00;79.70;;;;;;5045684;28;20586;-68
2024/01/21 09:17:23;;;;;;;7.78;2.75;;;3.00;79.50;;;;;;5046305;28;20033;-68
2024/01/21 09:19:49;;;;;;;4.90;2.83;;;3.10;79.60;;;;;;5043997;28;20033;-68
2024/01/21 09:22:16;;;;;;;8.05;3.30;;;3.10;79.80;;;;;;5041480;28;20491;-68
2024/01/21 09:24:42;;;;;;;8.88;3.30;;;3.10;79.80;;;;;;5043645;28;20037;-68
2024/01/21 09:27:10;;;;;;;5.63;2.88;;;3.10;79.30;;;;;;5046434;28;20025;-68
2024/01/21 09:29:36;;;;;;;;;;;3.10;79.40;;;;;;5044586;28;20040;-68
2024/01/21 09:32:04;;;;;;;4.13;2.20;;;3.20;79.20;;;;;;5045476;28;19916;-68
2024/01/21 09:34:29;;;;;;;;;;;3.10;79.50;;;;;;5046047;28;21549;-68
2024/01/21 09:37:00;;;;;;;5.10;2.47;;;3.20;80.30;;;;;;5047772;28;19917;-68
2024/01/21 09:39:30;;;;;;;8.43;2.55;;;3.20;79.30;;;;;;5047044;28;20044;-68
2024/01/21 09:41:57;;;;;;;8.60;2.90;;;3.20;79.70;;;;;;5045418;28;20107;-68
2024/01/21 09:44:32;;;;;;;6.80;3.00;;;3.30;79.60;;;;;;5045110;28;20040;-68
2024/01/21 09:46:58;;;;;;;12.45;2.92;;;3.20;79.00;;;;;;5045215;28;20621;-67
2024/01/21 09:49:24;;;;;;;6.95;2.50;;;3.30;79.60;;;;;;5044642;28;20033;-68
2024/01/21 09:51:55;;;;;;;5.72;2.90;;;3.30;79.10;;;;;;5040403;28;20031;-68
2024/01/21 09:54:24;;;;;;;5.07;2.67;;;3.40;79.40;;;;;;5040051;28;20033;-68
2024/01/21 09:56:54;;;;;;;5.55;2.50;;;3.40;79.10;;;;;;5045729;28;20025;-68
2024/01/21 09:59:22;;;;;;;4.53;2.53;;;3.50;79.50;;;;;;5044658;28;20092;-69
2024/01/21 10:01:48;;;;;;;5.55;2.50;;;3.50;79.50;;;;;;5044403;28;20064;-68
2024/01/21 10:04:14;;;;;;;7.43;2.90;;;3.50;78.80;;;;;;5045358;28;20119;-68
2024/01/21 10:06:40;;;;;;;7.32;3.00;;;3.50;79.20;;;;;;5045502;28;20705;-68
2024/01/21 10:09:19;;;;;;;7.80;2.97;;;3.50;79.50;;;;;;5046876;28;20029;-68
2024/01/21 10:11:49;;;;;;;6.85;3.33;;;3.50;79.00;;;;;;5047945;28;20040;-68
2024/01/21 10:14:15;;;;;;;4.78;2.75;;;3.50;79.50;;;;;;5046877;28;20037;-68
2024/01/21 10:16:44;;;;;;;5.47;2.85;;;3.50;79.60;;;;;;5048986;28;20508;-68
2024/01/21 10:19:16;;;;;;;7.10;3.10;;;3.50;79.60;;;;;;5049421;28;20116;-68
2024/01/21 10:21:44;;;;;;;7.20;3.00;;;3.50;80.00;;;;;;5050171;28;20033;-68
2024/01/21 10:24:12;;;;;;;5.30;3.05;;;3.50;80.20;;;;;;5050129;28;20025;-68
2024/01/21 10:26:41;;;;;;;6.53;3.13;;;3.50;80.50;;;;;;5050002;28;20025;-68
2024/01/21 10:29:09;;;;;;;5.28;2.72;;;3.50;80.80;;;;;;5047961;28;20063;-68
2024/01/21 10:31:37;;;;;;;13.13;3.35;;;3.50;81.10;;;;;;5048251;28;20197;-68
2024/01/21 10:34:09;;;;;;;9.63;3.40;;;3.40;81.50;;;;;;5047112;28;20440;-68
2024/01/21 10:36:40;;;;;;;8.32;3.15;;;3.40;81.60;;;;;;5049161;28;20068;-68
2024/01/21 10:39:08;;;;;;;5.93;2.80;;;3.50;81.70;;;;;;5047847;28;20186;-68
2024/01/21 10:41:38;;;;;;;6.15;3.25;;;3.60;81.80;;;;;;5043329;28;20024;-68
2024/01/21 10:44:08;;;;;;;8.40;3.20;;;3.60;81.60;;;;;;5047121;28;20045;-68
2024/01/21 10:46:35;;;;;;;7.47;3.42;;;3.60;81.30;;;;;;5048671;28;20037;-68
2024/01/21 10:49:05;;;;;;;6.00;3.25;;;3.70;81.20;;;;;;5048529;28;20053;-68
2024/01/21 10:51:31;;;;;;;6.55;3.08;;;3.80;80.90;;;;;;5046467;28;20037;-67
2024/01/21 10:54:00;;;;;;;5.78;3.05;;;3.80;81.20;;;;;;5047659;28;20877;-68
2024/01/21 10:56:29;;;;;;;6.90;3.10;;;3.90;80.50;;;;;;5047719;28;20047;-68
2024/01/21 10:58:54;;;;;;;8.10;3.28;;;3.90;80.90;;;;;;5048081;28;20456;-68
2024/01/21 11:01:21;;;;;;;5.75;3.08;;;3.90;81.10;;;;;;5046756;28;20061;-68
2024/01/21 11:03:52;;;;;;;5.68;3.00;;;3.90;80.70;;;;;;5040810;28;20037;-68
2024/01/21 11:06:21;;;;;;;6.88;2.90;;;4.00;81.00;;;;;;5047730;28;20033;-68
2024/01/21 11:08:49;;;;;;;5.30;2.85;;;4.00;80.60;;;;;;5046920;28;20032;-68
2024/01/21 11:11:20;;;;;;;11.73;3.60;;;4.10;80.10;;;;;;5048957;28;20143;-68
2024/01/21 11:13:49;;;;;;;6.70;3.25;;;4.20;80.30;;;;;;5048133;28;20449;-68
2024/01/21 11:16:30;;;;;;;5.75;3.20;;;4.20;80.30;;;;;;5047747;28;20083;-68
2024/01/21 11:19:14;;;;;;;7.55;3.58;;;4.20;79.90;;;;;;5044019;28;20719;-68
2024/01/21 11:21:42;;;;;;;6.63;3.45;;;4.30;80.00;;;;;;5048794;28;20095;-68
2024/01/21 11:24:13;;;;;;;5.63;3.38;;;4.30;79.10;;;;;;5049825;28;20055;-68
2024/01/21 11:26:46;;;;;;;9.07;4.05;;;4.40;79.10;;;;;;5042610;28;20410;-68
2024/01/21 11:29:25;;;;;;;10.45;3.30;;;4.30;79.30;;;;;;5046375;28;20033;-68
2024/01/21 11:31:52;;;;;;;8.43;4.15;;;4.40;79.20;;;;;;5047600;28;20037;-68
2024/01/21 11:34:18;;;;;;;8.73;3.50;;;4.50;79.10;;;;;;5048906;28;20116;-68
2024/01/21 11:36:44;;;;;;;7.45;3.85;;;4.50;78.80;;;;;;5049641;28;20355;-68
2024/01/21 11:39:12;;;;;;;10.40;3.83;;;4.50;78.60;;;;;;5048026;28;20044;-68
2024/01/21 11:41:42;;;;;;;9.82;4.07;;;4.50;78.80;;;;;;5049318;28;20494;-68
2024/01/21 11:44:13;;;;;;;10.95;4.40;;;4.50;78.50;;;;;;5048735;28;20507;-68
2024/01/21 11:46:39;;;;;;;10.77;4.28;;;4.50;78.90;;;;;;5048537;28;20150;-68
2024/01/21 11:49:14;;;;;;;9.55;3.78;;;4.50;78.90;;;;;;5049110;28;20029;-68
2024/01/21 11:51:40;;;;;;;11.00;4.38;;;4.60;79.00;;;;;;5041929;28;20033;-68
2024/01/21 11:54:07;;;;;;;11.80;3.92;;;4.60;79.30;;;;;;5044126;28;20053;-68
2024/01/21 11:56:34;;;;;;;7.88;3.80;;;4.60;79.70;;;;;;5042654;28;20467;-68
2024/01/21 11:59:00;;;;;;;8.73;4.23;;;4.70;79.10;;;;;;5061646;28;20051;-68
2024/01/21 12:01:30;;;;;;;9.52;3.95;;;4.70;79.30;;;;;;5047716;28;20033;-68
2024/01/21 12:03:58;;;;;;;9.90;4.03;;;4.80;79.90;;;;;;5046509;28;20036;-68
2024/01/21 12:06:26;;;;;;;;;;;4.80;80.20;;;;;;5046945;28;20029;-68
2024/01/21 12:08:51;;;;;;;;;;;4.80;80.00;;;;;;5047757;28;20398;-68
2024/01/21 12:11:17;;;;;;;9.30;3.97;;;4.90;80.10;;;;;;5045831;28;19971;-68
2024/01/21 12:13:45;;;;;;;9.50;4.07;;;4.90;80.40;;;;;;5047622;28;20029;-68
2024/01/21 12:16:16;;;;;;;11.73;4.55;;;4.90;80.10;;;;;;5046775;28;20033;-69
2024/01/21 12:18:43;;;;;;;8.75;4.38;;;4.90;80.60;;;;;;5043289;28;20033;-68
2024/01/21 12:21:14;;;;;;;7.38;3.85;;;5.00;80.80;;;;;;5044504;28;20060;-69
2024/01/21 12:23:46;;;;;;;9.25;4.55;;;5.00;81.10;;;;;;5047185;28;20137;-68
2024/01/21 12:26:19;;;;;;;11.98;5.18;;;5.00;81.50;;;;;;5047061;28;20052;-68
2024/01/21 12:29:03;;;;;;;14.88;4.43;;;4.90;81.60;;;;;;5046811;28;20052;-68
2024/01/21 12:31:39;;;;;;;10.82;4.80;;;4.90;82.90;;;;;;5046805;28;20025;-68
2024/01/21 12:34:09;;;;;;;9.20;4.75;;;5.00;82.60;;;;;;5046042;28;20025;-68
2024/01/21 12:36:41;;;;;;;10.43;4.13;;;5.00;83.10;;;;;;5046758;28;20068;-68
2024/01/21 12:39:09;;;;;;;11.30;4.50;;;5.00;83.70;;;;;;5045157;28;20033;-68
2024/01/21 12:41:35;;;;;;;9.65;4.18;;;5.10;84.10;;;;;;5041511;28;20076;-68
2024/01/21 12:44:04;;;;;;;10.57;4.85;;;5.10;84.50;;;;;;5055423;28;20448;-68
2024/01/21 12:46:32;;;;;;;13.90;5.30;;;5.20;85.10;;;;;;5022030;23;20052;-68
2024/01/21 12:49:00;;;;;;;10.10;4.47;;;5.20;85.40;;;;;;4997794;28;20042;-68
2024/01/21 12:51:28;;;;;;;12.23;5.30;;;5.30;85.70;;;;;;4999534;28;20042;-68
2024/01/21 12:53:58;;;;;;;9.93;4.78;;;5.30;86.10;;;;;;5004590;28;20044;-68
2024/01/21 12:56:26;;;;;;;12.55;4.60;;;5.30;87.10;;;;;;5000195;28;20029;-68
2024/01/21 12:58:54;;;;;;;13.65;4.90;;;5.30;87.20;;;;;;5002889;28;20054;-68